Sparta, WI

8:41 PM CST on February 07, 2016 (GMT -0600)
Sparta-Fort McCoy | | Change Station
CLOSE
Current Station
Airport
Location: Sparta,
Elevation: 837 ft
Nearby Weather Stations

Elev 837 ft 43.96 °N, 90.74 °W | Updated 26 minutes ago

Overcast
Overcast
36 °F
Feels Like 31 °F
N
7
Wind Variable Wind from WSW

Today
High -- | Low -- °F
--% Chance of Precip.
Yesterday
High -- | Low -- °F
Precip. -- in
Pressure 29.65 in
Visibility 10.0 miles
Clouds Overcast 2200 ft
Windchill 31 °F
Dew Point 30 °F
Humidity 78%
Rainfall 0.31 in
Snow Depth Not available.
7:13 AM 5:21 PM
Waning Crescent, 0% visible
METAR KCMY 080215Z AUTO 25006KT 10SM OVC022 02/M01 A2965 RMK AO2 T00231011
Pressure 29.65 in
Visibility 10.0 miles
Clouds Overcast 2200 ft
Windchill 31 °F
Dew Point 30 °F
Humidity 78%
Rainfall 0.31 in
Snow Depth Not available.
7:13 AM 5:21 PM
Waning Crescent, 0% visible
METAR KCMY 080215Z AUTO 25006KT 10SM OVC022 02/M01 A2965 RMK AO2 T00231011

10-Day Weather Forecast

Almanac

Astronomy

Feb. 07, 2016 Rise Set
Actual Time
Civil Twilight
Nautical Twilight
Astronomical Twilight
Moon
Length of Visible Light
Length of Day
Tomorrow will be .
, % of the Moon is Illuminated

Today's Extremes

State Highs State Lows

Community

WunderPhotos

Upload Photos

1,891,373 photos uploaded!

WunderBlog® & News

Nearby

Air Quality

  Air Quality AQ Index Pollutant
Not available.

Snow Depth

Station Depth Elevation

Earthquake Activity

City Distance Mag. Time & Date
Minimum magnitude displayed is 2.5.

Coastal Water Temperatures

Place Temperature

Stations

Nearby Weather Stations

Station Location Temp. Windchill Dew Point Humidity Wind Precip. Elev Updated Type
                   

Watches & Warnings

There are currently no watches in effect.